Time;durP1;ratioP1;P1;durP2;ratioP2;P2;SDS_P1;SDS_P2;PMS_P1;PMS_P2;Temp;Humidity;BMP_temperature;BMP_pressure;BME280_temperature;BME280_humidity;BME280_pressure;Samples;Min_cycle;Max_cycle;Signal;HPM_P1;HPM_P2
2022/01/01 00:01:12;;;;;;;136.00;19.73;;;;;;;-145.67;100.00;66521.78;4994335;28;20056;-70
2022/01/01 00:03:38;;;;;;;132.73;19.98;;;;;;;-145.67;100.00;66521.78;4994256;28;20600;-70
2022/01/01 00:06:03;;;;;;;120.35;20.83;;;;;;;-145.67;100.00;66521.78;4995398;28;20115;-70
2022/01/01 00:08:29;;;;;;;125.40;19.77;;;;;;;-145.67;100.00;66521.78;4995166;28;20034;-70
2022/01/01 00:10:54;;;;;;;116.15;17.73;;;;;;;-145.67;100.00;66521.78;4994912;28;20068;-69
2022/01/01 00:13:22;;;;;;;132.20;26.90;;;;;;;-145.67;100.00;66521.78;4992080;28;20189;-70
2022/01/01 00:15:50;;;;;;;117.63;23.80;;;;;;;-145.67;100.00;66521.78;4994052;28;20029;-69
2022/01/01 00:18:18;;;;;;;116.68;17.00;;;;;;;-145.67;100.00;66521.78;4994866;28;20153;-70
2022/01/01 00:20:46;;;;;;;97.47;17.02;;;;;;;-145.67;100.00;66521.78;4995165;28;22465;-70
2022/01/01 00:23:12;;;;;;;93.18;18.75;;;;;;;-145.67;100.00;66521.78;4995112;28;20737;-72
2022/01/01 00:25:40;;;;;;;64.38;14.68;;;;;;;-145.67;100.00;66521.78;4994567;28;20033;-73
2022/01/01 00:28:05;;;;;;;80.95;14.10;;;;;;;-145.67;100.00;66521.78;4994705;28;20442;-72
2022/01/01 00:30:31;;;;;;;95.75;14.85;;;;;;;-145.67;100.00;66521.78;4994724;28;20096;-73
2022/01/01 00:32:56;;;;;;;97.55;13.45;;;;;;;-145.67;100.00;66521.78;4994560;28;20726;-74
2022/01/01 00:35:26;;;;;;;89.60;13.13;;;;;;;-145.67;100.00;66521.78;4994562;28;20061;-72
2022/01/01 00:37:52;;;;;;;86.40;18.40;;;;;;;-145.67;100.00;66521.78;4995131;28;20275;-72
2022/01/01 00:40:22;;;;;;;63.33;12.07;;;;;;;-145.67;100.00;66521.78;4995445;28;20069;-73
2022/01/01 00:42:47;;;;;;;65.60;16.13;;;;;;;-145.67;100.00;66521.78;4994124;28;20021;-73
2022/01/01 00:45:15;;;;;;;74.82;14.38;;;;;;;-145.67;100.00;66521.78;4995149;28;20087;-73
2022/01/01 00:47:43;;;;;;;86.47;20.23;;;;;;;-145.67;100.00;66521.78;4994743;28;20033;-73
2022/01/01 00:50:09;;;;;;;92.22;25.48;;;;;;;-145.67;100.00;66521.78;4994607;28;20033;-73
2022/01/01 00:52:34;;;;;;;103.93;25.55;;;;;;;-145.67;100.00;66521.78;4992915;28;20033;-73
2022/01/01 00:55:00;;;;;;;98.80;26.23;;;;;;;-145.67;100.00;66521.78;4994885;28;20553;-73
2022/01/01 00:57:28;;;;;;;68.53;20.35;;;;;;;-145.67;100.00;66521.78;4995079;28;20029;-73
2022/01/01 00:59:53;;;;;;;68.40;12.05;;;;;;;-145.67;100.00;66521.78;4994628;28;20033;-72
2022/01/01 01:02:19;;;;;;;59.75;12.65;;;;;;;-145.67;100.00;66521.78;4994690;28;20041;-73
2022/01/01 01:04:47;;;;;;;66.60;12.38;;;;;;;-145.67;100.00;66521.78;4994134;28;20049;-72
2022/01/01 01:07:12;;;;;;;72.20;11.40;;;;;;;-145.67;100.00;66521.78;4998887;28;20045;-73
2022/01/01 01:09:38;;;;;;;75.30;12.38;;;;;;;-145.67;100.00;66521.78;4993885;28;20502;-72
2022/01/01 01:12:06;;;;;;;67.57;12.70;;;;;;;-145.67;100.00;66521.78;4995631;28;20029;-74
2022/01/01 01:14:39;;;;;;;57.58;12.77;;;;;;;-145.67;100.00;66521.78;4998304;28;20036;-74
2022/01/01 01:17:05;;;;;;;64.75;14.60;;;;;;;-145.67;100.00;66521.78;4998029;28;20037;-73
2022/01/01 01:19:31;;;;;;;97.00;15.75;;;;;;;-145.67;100.00;66521.78;5002787;28;20134;-74
2022/01/01 01:21:59;;;;;;;81.97;15.68;;;;;;;-145.67;100.00;66521.78;4998802;28;20030;-74
2022/01/01 01:24:25;;;;;;;117.88;18.52;;;;;;;-145.67;100.00;66521.78;4997894;28;20041;-74
2022/01/01 01:26:52;;;;;;;119.20;17.25;;;;;;;-145.67;100.00;66521.78;4998167;28;20038;-74
2022/01/01 01:29:19;;;;;;;57.85;15.52;;;;;;;-145.67;100.00;66521.78;5001835;28;20033;-74
2022/01/01 01:31:51;;;;;;;63.65;15.93;;;;;;;-145.67;100.00;66521.78;4998583;28;20029;-74
2022/01/01 01:34:16;;;;;;;73.78;17.27;;;;;;;-145.67;100.00;66521.78;4997817;28;20140;-74
2022/01/01 01:36:42;;;;;;;73.65;17.02;;;;;;;-145.67;100.00;66521.78;5001673;28;20156;-74
2022/01/01 01:39:08;;;;;;;87.38;16.67;;;;;;;-145.67;100.00;66521.78;4998535;28;20176;-74
2022/01/01 01:41:34;;;;;;;85.95;18.08;;;;;;;-145.67;100.00;66521.78;5012516;28;20034;-74
2022/01/01 01:44:00;;;;;;;76.82;18.08;;;;;;;-145.67;100.00;66521.78;4998430;28;20038;-72
2022/01/01 01:46:26;;;;;;;84.78;18.55;;;;;;;-145.67;100.00;66521.78;5012486;28;20499;-72
2022/01/01 01:48:52;;;;;;;78.75;18.75;;;;;;;-145.67;100.00;66521.78;5001390;28;20037;-73
2022/01/01 01:51:18;;;;;;;73.45;19.15;;;;;;;-145.67;100.00;66521.78;4991688;28;20092;-72
2022/01/01 01:53:43;;;;;;;92.95;19.83;;;;;;;-145.67;100.00;66521.78;5012254;28;20065;-73
2022/01/01 01:56:09;;;;;;;67.05;18.75;;;;;;;-145.67;100.00;66521.78;5007754;28;20045;-72
2022/01/01 01:58:35;;;;;;;50.63;16.83;;;;;;;-145.67;100.00;66521.78;4995550;28;20034;-72
2022/01/01 02:03:46;;;;;;;66.60;18.27;;;;;;;-145.67;100.00;66521.78;4997115;28;20076;-74
2022/01/01 02:06:13;;;;;;;73.72;19.65;;;;;;;-145.67;100.00;66521.78;4997992;28;20057;-74
2022/01/01 02:08:39;;;;;;;68.10;18.70;;;;;;;-145.67;100.00;66521.78;5012279;28;20607;-74
2022/01/01 02:11:05;;;;;;;92.80;21.38;;;;;;;-145.67;100.00;66521.78;4997652;28;21872;-74
2022/01/01 02:13:45;;;;;;;71.38;19.70;;;;;;;-145.67;100.00;66521.78;4997376;28;20107;-72
2022/01/01 02:18:51;;;;;;;119.85;21.63;;;;;;;-145.67;100.00;66521.78;4995614;28;20064;-73
2022/01/01 02:21:18;;;;;;;107.60;20.90;;;;;;;-145.67;100.00;66521.78;4997888;28;20037;-74
2022/01/01 02:23:46;;;;;;;123.32;22.52;;;;;;;-145.67;100.00;66521.78;5011407;28;20117;-74
2022/01/01 02:26:15;;;;;;;123.93;22.80;;;;;;;-145.67;100.00;66521.78;5000425;28;20030;-73
2022/01/01 02:28:42;;;;;;;120.05;22.08;;;;;;;-145.67;100.00;66521.78;5002807;28;20034;-73
2022/01/01 02:31:10;;;;;;;112.35;21.25;;;;;;;-145.67;100.00;66521.78;4996833;28;20045;-74
2022/01/01 02:33:39;;;;;;;120.57;21.02;;;;;;;-145.67;100.00;66521.78;4997070;28;20075;-74
2022/01/01 02:36:08;;;;;;;118.47;20.67;;;;;;;-145.67;100.00;66521.78;4985761;28;20077;-73
2022/01/01 02:38:35;;;;;;;124.82;21.10;;;;;;;-145.67;100.00;66521.78;4997961;28;20061;-73
2022/01/01 02:41:05;;;;;;;84.97;15.93;;;;;;;-145.67;100.00;66521.78;5006036;28;20035;-73
2022/01/01 02:43:32;;;;;;;66.03;12.38;;;;;;;-145.67;100.00;66521.78;4997005;28;20037;-73
2022/01/01 02:46:00;;;;;;;99.22;14.48;;;;;;;-145.67;100.00;66521.78;5010725;28;20033;-73
2022/01/01 02:48:26;;;;;;;79.18;13.90;;;;;;;-145.67;100.00;66521.78;4996138;28;20473;-74
2022/01/01 02:50:54;;;;;;;86.72;14.40;;;;;;;-145.67;100.00;66521.78;4994398;28;20140;-74
2022/01/01 02:53:20;;;;;;;113.28;14.60;;;;;;;-145.67;100.00;66521.78;4996492;28;20087;-73
2022/01/01 02:55:46;;;;;;;105.30;15.50;;;;;;;-145.67;100.00;66521.78;4996057;28;20030;-73
2022/01/01 02:58:12;;;;;;;118.13;14.65;;;;;;;-145.67;100.00;66521.78;5010373;28;20639;-73
2022/01/01 03:00:40;;;;;;;80.40;14.07;;;;;;;-145.67;100.00;66521.78;4996364;28;20040;-73
2022/01/01 03:03:09;;;;;;;86.03;14.73;;;;;;;-145.67;100.00;66521.78;4995689;28;20165;-74
2022/01/01 03:05:36;;;;;;;67.18;18.63;;;;;;;-145.67;100.00;66521.78;4996253;28;20615;-73
2022/01/01 03:08:04;;;;;;;98.82;27.15;;;;;;;-145.67;100.00;66521.78;5001445;28;20121;-73
2022/01/01 03:10:29;;;;;;;112.60;32.92;;;;;;;-145.67;100.00;66521.78;4996215;28;20030;-73
2022/01/01 03:12:55;;;;;;;115.47;35.30;;;;;;;-145.67;100.00;66521.78;4995757;28;20080;-73
2022/01/01 03:15:21;;;;;;;95.63;27.38;;;;;;;-145.67;100.00;66521.78;4999843;28;20096;-73
2022/01/01 03:17:49;;;;;;;90.75;26.35;;;;;;;-145.67;100.00;66521.78;4994762;28;20144;-73
2022/01/01 03:20:14;;;;;;;79.75;26.13;;;;;;;-145.67;100.00;66521.78;4995497;28;20037;-73
2022/01/01 03:22:45;;;;;;;73.10;21.73;;;;;;;-145.67;100.00;66521.78;4996576;28;20053;-73
2022/01/01 03:25:10;;;;;;;70.35;22.50;;;;;;;-145.67;100.00;66521.78;4995794;28;20033;-73
2022/01/01 03:27:36;;;;;;;98.90;24.17;;;;;;;-145.67;100.00;66521.78;4996158;28;20053;-73
2022/01/01 03:30:05;;;;;;;85.13;25.25;;;;;;;-145.67;100.00;66521.78;4995516;28;20029;-73
2022/01/01 03:32:30;;;;;;;89.65;25.08;;;;;;;-145.67;100.00;66521.78;4999660;28;20030;-73
2022/01/01 03:34:56;;;;;;;105.82;25.73;;;;;;;-145.67;100.00;66521.78;5003278;28;20073;-73
2022/01/01 03:37:22;;;;;;;85.65;21.10;;;;;;;-145.67;100.00;66521.78;4995649;28;20153;-73
2022/01/01 03:39:48;;;;;;;83.18;21.50;;;;;;;-145.67;100.00;66521.78;5001402;28;20148;-74
2022/01/01 03:42:13;;;;;;;99.90;21.00;;;;;;;-145.67;100.00;66521.78;4995757;28;20037;-73
2022/01/01 03:44:39;;;;;;;87.57;20.92;;;;;;;-145.67;100.00;66521.78;5001196;28;20037;-73
2022/01/01 03:47:09;;;;;;;96.63;20.98;;;;;;;-145.67;100.00;66521.78;4996103;28;20486;-73
2022/01/01 03:49:38;;;;;;;101.35;20.88;;;;;;;-145.67;100.00;66521.78;4995767;28;20392;-73
2022/01/01 03:52:04;;;;;;;88.40;20.95;;;;;;;-145.67;100.00;66521.78;4995249;28;20044;-73
2022/01/01 03:54:30;;;;;;;92.38;20.90;;;;;;;-145.67;100.00;66521.78;4993622;28;20037;-73
2022/01/01 03:56:58;;;;;;;104.28;23.50;;;;;;;-145.67;100.00;66521.78;4995021;28;20042;-74
2022/01/01 03:59:26;;;;;;;100.85;23.08;;;;;;;-145.67;100.00;66521.78;4995025;28;20034;-72
2022/01/01 04:01:52;;;;;;;96.78;24.83;;;;;;;-145.67;100.00;66521.78;5004954;28;20531;-73
2022/01/01 04:04:22;;;;;;;99.25;25.63;;;;;;;-145.67;100.00;66521.78;4998986;28;20034;-73
2022/01/01 04:06:48;;;;;;;97.95;26.10;;;;;;;-145.67;100.00;66521.78;4995309;28;20037;-74
2022/01/01 04:09:14;;;;;;;108.40;27.63;;;;;;;-145.67;100.00;66521.78;4994250;28;20091;-74
2022/01/01 04:11:40;;;;;;;114.88;28.58;;;;;;;-145.67;100.00;66521.78;4995485;28;20030;-74
2022/01/01 04:14:11;;;;;;;100.75;27.45;;;;;;;-145.67;100.00;66521.78;5009840;28;20033;-73
2022/01/01 04:16:39;;;;;;;104.18;29.27;;;;;;;-145.67;100.00;66521.78;4995433;28;20048;-73
2022/01/01 04:19:04;;;;;;;99.72;27.52;;;;;;;-145.67;100.00;66521.78;5000276;28;20038;-73
2022/01/01 04:21:30;;;;;;;115.50;27.75;;;;;;;-145.67;100.00;66521.78;4998565;28;20052;-72
2022/01/01 04:23:55;;;;;;;110.20;28.48;;;;;;;-145.67;100.00;66521.78;4995264;28;20033;-74
2022/01/01 04:26:21;;;;;;;103.95;28.08;;;;;;;-145.67;100.00;66521.78;5010193;28;20569;-72
2022/01/01 04:28:47;;;;;;;124.65;28.98;;;;;;;-145.67;100.00;66521.78;4994459;28;20041;-73
2022/01/01 04:31:15;;;;;;;88.07;27.58;;;;;;;-145.67;100.00;66521.78;5009604;28;20501;-73
2022/01/01 04:33:41;;;;;;;101.82;29.70;;;;;;;-145.67;100.00;66521.78;4994809;28;20041;-73
2022/01/01 04:36:06;;;;;;;102.65;30.25;;;;;;;-145.67;100.00;66521.78;4993874;28;20049;-73
2022/01/01 04:38:39;;;;;;;109.18;30.02;;;;;;;-145.67;100.00;66521.78;4994871;28;20044;-73
2022/01/01 04:41:06;;;;;;;121.55;30.25;;;;;;;-145.67;100.00;66521.78;4994909;28;20490;-73
2022/01/01 04:43:31;;;;;;;97.47;27.92;;;;;;;-145.67;100.00;66521.78;5009766;28;20114;-73
2022/01/01 04:45:57;;;;;;;115.53;30.08;;;;;;;-145.67;100.00;66521.78;4994327;28;20046;-73
2022/01/01 04:48:22;;;;;;;102.60;29.00;;;;;;;-145.67;100.00;66521.78;4994638;28;20799;-73
2022/01/01 04:50:48;;;;;;;105.50;29.17;;;;;;;-145.67;100.00;66521.78;4994192;28;20407;-73
2022/01/01 04:53:17;;;;;;;106.90;30.50;;;;;;;-145.67;100.00;66521.78;4994544;28;20076;-73
2022/01/01 04:55:45;;;;;;;103.25;28.80;;;;;;;-145.67;100.00;66521.78;4994550;28;20030;-73
2022/01/01 04:58:10;;;;;;;98.18;27.40;;;;;;;-145.67;100.00;66521.78;5003678;28;20037;-73
2022/01/01 05:00:38;;;;;;;96.10;27.85;;;;;;;-145.67;100.00;66521.78;4994760;28;20037;-73
2022/01/01 05:03:04;;;;;;;87.85;27.85;;;;;;;-145.67;100.00;66521.78;4993824;28;20273;-73
2022/01/01 05:05:30;;;;;;;102.18;29.67;;;;;;;-145.67;100.00;66521.78;5008863;28;20029;-74
2022/01/01 05:07:58;;;;;;;96.45;28.33;;;;;;;-145.67;100.00;66521.78;4992662;28;20076;-73
2022/01/01 05:10:28;;;;;;;93.90;28.23;;;;;;;-145.67;100.00;66521.78;4993803;28;20113;-73
2022/01/01 05:12:54;;;;;;;100.45;28.23;;;;;;;-145.67;100.00;66521.78;4993413;28;20030;-73
2022/01/01 05:15:22;;;;;;;100.65;27.55;;;;;;;-145.67;100.00;66521.78;4994311;28;20034;-73
2022/01/01 05:17:49;;;;;;;107.05;29.65;;;;;;;-145.67;100.00;66521.78;4993784;28;20052;-73
2022/01/01 05:20:20;;;;;;;120.22;28.02;;;;;;;-145.67;100.00;66521.78;5003085;28;20586;-73
2022/01/01 05:22:45;;;;;;;86.15;28.23;;;;;;;-145.67;100.00;66521.78;4993425;28;20474;-73
2022/01/01 05:25:13;;;;;;;100.60;27.60;;;;;;;-145.67;100.00;66521.78;4983702;28;20164;-73
2022/01/01 05:27:42;;;;;;;79.38;26.60;;;;;;;-145.67;100.00;66521.78;4994152;28;20060;-72
2022/01/01 05:30:11;;;;;;;92.78;28.90;;;;;;;-145.67;100.00;66521.78;4998658;28;20038;-73
2022/01/01 05:32:36;;;;;;;80.65;26.55;;;;;;;-145.67;100.00;66521.78;4993616;28;20045;-73
2022/01/01 05:35:03;;;;;;;82.60;27.08;;;;;;;-145.67;100.00;66521.78;4992675;28;20471;-73
2022/01/01 05:37:31;;;;;;;77.32;26.92;;;;;;;-145.67;100.00;66521.78;4993594;28;20124;-74
2022/01/01 05:39:58;;;;;;;78.38;26.92;;;;;;;-145.67;100.00;66521.78;4993690;28;20037;-74
2022/01/01 05:42:24;;;;;;;69.97;27.00;;;;;;;-145.67;100.00;66521.78;4993695;28;20168;-74
2022/01/01 05:44:49;;;;;;;76.20;26.25;;;;;;;-145.67;100.00;66521.78;4993297;28;20473;-73
2022/01/01 05:47:17;;;;;;;72.13;27.50;;;;;;;-145.67;100.00;66521.78;4982400;28;20077;-73
2022/01/01 05:49:43;;;;;;;79.53;27.40;;;;;;;-145.67;100.00;66521.78;4996937;28;20033;-74
2022/01/01 05:52:08;;;;;;;67.05;26.92;;;;;;;-145.67;100.00;66521.78;4993796;28;20396;-74
2022/01/01 05:54:34;;;;;;;72.63;26.13;;;;;;;-145.67;100.00;66521.78;4993949;28;21996;-73
2022/01/01 05:57:00;;;;;;;70.25;26.45;;;;;;;-145.67;100.00;66521.78;4993261;28;20495;-74
2022/01/01 05:59:26;;;;;;;67.68;26.52;;;;;;;-145.67;100.00;66521.78;4995968;28;20107;-74
2022/01/01 06:01:54;;;;;;;72.32;27.83;;;;;;;-145.67;100.00;66521.78;4996812;28;20474;-74
2022/01/01 06:04:22;;;;;;;63.53;24.50;;;;;;;-145.67;100.00;66521.78;5001619;28;20460;-73
2022/01/01 06:06:47;;;;;;;65.18;23.85;;;;;;;-145.67;100.00;66521.78;4997213;28;20038;-73
2022/01/01 06:09:13;;;;;;;70.40;23.58;;;;;;;-145.67;100.00;66521.78;4984706;28;20029;-73
2022/01/01 06:11:41;;;;;;;69.20;24.63;;;;;;;-145.67;100.00;66521.78;4997054;28;20160;-73
2022/01/01 06:14:09;;;;;;;65.72;23.88;;;;;;;-145.67;100.00;66521.78;4997247;28;20068;-73
2022/01/01 06:16:34;;;;;;;68.38;23.90;;;;;;;-145.67;100.00;66521.78;5000798;28;20037;-73
2022/01/01 06:19:00;;;;;;;62.20;23.92;;;;;;;-145.67;100.00;66521.78;4996165;28;20681;-74
2022/01/01 06:21:25;;;;;;;55.65;21.83;;;;;;;-145.67;100.00;66521.78;4996493;28;20041;-73
2022/01/01 06:23:51;;;;;;;57.45;23.15;;;;;;;-145.67;100.00;66521.78;4996243;28;20060;-73
2022/01/01 06:26:16;;;;;;;67.45;24.23;;;;;;;-145.67;100.00;66521.78;4995839;28;20048;-73
2022/01/01 06:28:42;;;;;;;68.18;23.88;;;;;;;-145.67;100.00;66521.78;4996131;28;20123;-73
2022/01/01 06:31:10;;;;;;;74.55;24.80;;;;;;;-145.67;100.00;66521.78;4997130;28;20045;-73
2022/01/01 06:33:40;;;;;;;66.85;23.88;;;;;;;-145.67;100.00;66521.78;4996135;28;20628;-73
2022/01/01 06:36:12;;;;;;;58.22;22.63;;;;;;;-145.67;100.00;66521.78;4997611;28;20064;-72
2022/01/01 06:38:38;;;;;;;65.38;25.13;;;;;;;-145.67;100.00;66521.78;4997192;28;20174;-73
2022/01/01 06:41:04;;;;;;;67.85;26.73;;;;;;;-145.67;100.00;66521.78;5002653;28;20027;-73
2022/01/01 06:43:29;;;;;;;71.57;30.98;;;;;;;-145.67;100.00;66521.78;4996923;28;20049;-73
2022/01/01 06:45:55;;;;;;;80.75;36.05;;;;;;;-145.67;100.00;66521.78;4995026;28;20032;-70
2022/01/01 06:48:20;;;;;;;77.90;32.67;;;;;;;-145.67;100.00;66521.78;4996532;28;20046;-70
2022/01/01 06:50:46;;;;;;;66.00;29.95;;;;;;;-145.67;100.00;66521.78;4996461;28;20056;-70
2022/01/01 06:53:13;;;;;;;71.57;28.90;;;;;;;-145.67;100.00;66521.78;4996193;28;20025;-70
2022/01/01 06:55:39;;;;;;;66.93;30.38;;;;;;;-145.67;100.00;66521.78;5010410;28;21036;-70
2022/01/01 06:58:07;;;;;;;66.00;29.63;;;;;;;-145.67;100.00;66521.78;4996419;28;20034;-70
2022/01/01 07:00:35;;;;;;;64.57;30.30;;;;;;;-145.67;100.00;66521.78;5001356;28;20049;-70
2022/01/01 07:03:00;;;;;;;53.97;23.52;;;;;;;-145.67;100.00;66521.78;5010924;28;20037;-70
2022/01/01 07:05:28;;;;;;;54.30;21.23;;;;;;;-145.67;100.00;66521.78;4996081;28;20042;-70
2022/01/01 07:07:53;;;;;;;56.47;27.00;;;;;;;-145.67;100.00;66521.78;4986216;28;20473;-70
2022/01/01 07:10:21;;;;;;;61.72;24.30;;;;;;;-145.67;100.00;66521.78;4995761;28;20142;-70
2022/01/01 07:12:52;;;;;;;59.83;25.88;;;;;;;-145.67;100.00;66521.78;4996770;28;20500;-70
2022/01/01 07:15:22;;;;;;;57.78;27.80;;;;;;;-145.67;100.00;66521.78;4999380;28;20061;-70
2022/01/01 07:17:50;;;;;;;63.60;31.25;;;;;;;-145.67;100.00;66521.78;4995552;28;20068;-70
2022/01/01 07:20:15;;;;;;;70.07;33.65;;;;;;;-145.67;100.00;66521.78;4993693;28;20037;-70
2022/01/01 07:22:44;;;;;;;64.25;30.67;;;;;;;-145.67;100.00;66521.78;4995804;28;20379;-70
2022/01/01 07:25:11;;;;;;;50.42;22.05;;;;;;;-145.67;100.00;66521.78;4999590;28;20512;-71
2022/01/01 07:27:41;;;;;;;43.65;19.25;;;;;;;-145.67;100.00;66521.78;5010418;28;22050;-70
2022/01/01 07:30:08;;;;;;;47.22;18.77;;;;;;;-145.67;100.00;66521.78;4994975;28;20041;-70
2022/01/01 07:32:38;;;;;;;41.38;18.98;;;;;;;-145.67;100.00;66521.78;4993885;28;20026;-70
2022/01/01 07:35:04;;;;;;;37.15;17.25;;;;;;;-145.67;100.00;66521.78;4995444;28;20485;-70
2022/01/01 07:37:31;;;;;;;42.03;17.63;;;;;;;-145.67;100.00;66521.78;4995481;28;20034;-70
2022/01/01 07:39:59;;;;;;;44.00;18.30;;;;;;;-145.67;100.00;66521.78;4995703;28;20025;-69
2022/01/01 07:42:25;;;;;;;53.13;26.42;;;;;;;-145.67;100.00;66521.78;5009858;28;20485;-71
2022/01/01 07:44:53;;;;;;;67.30;32.10;;;;;;;-145.67;100.00;66521.78;4994504;28;20076;-70
2022/01/01 07:47:18;;;;;;;62.80;32.42;;;;;;;-145.67;100.00;66521.78;4995185;28;20033;-71
2022/01/01 07:49:46;;;;;;;56.85;27.73;;;;;;;-145.67;100.00;66521.78;4994294;28;20057;-69
2022/01/01 07:52:12;;;;;;;65.63;29.25;;;;;;;-145.67;100.00;66521.78;4995239;28;20038;-70
2022/01/01 07:54:40;;;;;;;57.75;28.52;;;;;;;-145.67;100.00;66521.78;4995516;28;20061;-71
2022/01/01 07:57:08;;;;;;;55.35;26.83;;;;;;;-145.67;100.00;66521.78;4995788;28;20038;-71
2022/01/01 07:59:35;;;;;;;54.70;26.45;;;;;;;-145.67;100.00;66521.78;4995030;28;20144;-71
2022/01/01 08:02:01;;;;;;;50.50;23.63;;;;;;;-145.67;100.00;66521.78;5009981;28;20126;-71
2022/01/01 08:04:31;;;;;;;44.75;19.35;;;;;;;-145.67;100.00;66521.78;4995139;28;20087;-70
2022/01/01 08:06:56;;;;;;;41.97;21.23;;;;;;;-145.67;100.00;66521.78;4995427;28;20037;-70
2022/01/01 08:09:22;;;;;;;38.95;17.52;;;;;;;-145.67;100.00;66521.78;4995917;28;20555;-71
2022/01/01 08:11:50;;;;;;;29.45;13.77;;;;;;;-145.67;100.00;66521.78;4994977;28;20084;-70
2022/01/01 08:14:20;;;;;;;33.38;12.70;;;;;;;-145.67;100.00;66521.78;4995609;28;20501;-70
2022/01/01 08:17:06;;;;;;;28.73;12.07;;;;;;;-145.67;100.00;66521.78;4995479;28;20754;-71
2022/01/01 08:19:35;;;;;;;30.05;11.63;;;;;;;-145.67;100.00;66521.78;4994321;28;20492;-71
2022/01/01 08:22:01;;;;;;;29.27;12.30;;;;;;;-145.67;100.00;66521.78;4994079;28;20025;-71
2022/01/01 08:24:28;;;;;;;27.40;11.80;;;;;;;-145.67;100.00;66521.78;4993397;28;20029;-71
2022/01/01 08:26:56;;;;;;;23.45;10.60;;;;;;;-145.67;100.00;66521.78;4994647;28;20056;-71
2022/01/01 08:29:22;;;;;;;28.52;14.90;;;;;;;-145.67;100.00;66521.78;4999934;28;20025;-71
2022/01/01 08:31:50;;;;;;;35.35;15.57;;;;;;;-145.67;100.00;66521.78;4994287;28;20601;-71
2022/01/01 08:34:15;;;;;;;30.25;13.52;;;;;;;-145.67;100.00;66521.78;4994380;28;20485;-71
2022/01/01 08:36:41;;;;;;;25.40;12.20;;;;;;;-145.67;100.00;66521.78;4994867;28;20053;-71
2022/01/01 08:39:08;;;;;;;31.83;14.40;;;;;;;-145.67;100.00;66521.78;4994403;28;20108;-70
2022/01/01 08:41:34;;;;;;;27.67;12.55;;;;;;;-145.67;100.00;66521.78;4995237;28;20060;-71
2022/01/01 08:44:00;;;;;;;25.65;12.15;;;;;;;-145.67;100.00;66521.78;4993827;28;20037;-70
2022/01/01 08:46:26;;;;;;;28.40;14.10;;;;;;;-145.67;100.00;66521.78;4994724;28;20512;-70
2022/01/01 08:48:51;;;;;;;36.35;15.65;;;;;;;-145.67;100.00;66521.78;4993850;28;20037;-70
2022/01/01 08:51:21;;;;;;;26.67;14.40;;;;;;;-145.67;100.00;66521.78;4994244;28;20033;-71
2022/01/01 08:53:49;;;;;;;25.00;12.95;;;;;;;-145.67;100.00;66521.78;5008974;28;20040;-71
2022/01/01 08:56:15;;;;;;;27.45;12.25;;;;;;;-145.67;100.00;66521.78;4994555;28;20036;-70
2022/01/01 08:58:46;;;;;;;32.90;14.45;;;;;;;-145.67;100.00;66521.78;4993622;28;20026;-70
2022/01/01 09:01:13;;;;;;;33.10;14.80;;;;;;;-145.67;100.00;66521.78;5008598;28;20025;-72
2022/01/01 09:03:41;;;;;;;30.02;13.02;;;;;;;-145.67;100.00;66521.78;5008393;28;20038;-70
2022/01/01 09:06:08;;;;;;;30.73;12.07;;;;;;;-145.67;100.00;66521.78;4999956;28;20124;-70
2022/01/01 09:08:38;;;;;;;29.83;11.50;;;;;;;-145.67;100.00;66521.78;4993150;28;20038;-71
2022/01/01 09:11:07;;;;;;;26.08;11.07;;;;;;;-145.67;100.00;66521.78;5000864;28;20058;-71
2022/01/01 09:13:33;;;;;;;26.55;10.43;;;;;;;-145.67;100.00;66521.78;4993868;28;20068;-71
2022/01/01 09:16:02;;;;;;;28.30;11.52;;;;;;;-145.67;100.00;66521.78;5008940;28;20041;-71
2022/01/01 09:18:30;;;;;;;23.85;9.95;;;;;;;-145.67;100.00;66521.78;4987024;28;20712;-70
2022/01/01 09:20:56;;;;;;;20.10;9.57;;;;;;;-145.67;100.00;66521.78;4994003;28;20072;-70
2022/01/01 09:23:24;;;;;;;21.35;9.50;;;;;;;-145.67;100.00;66521.78;4993723;28;20048;-70
2022/01/01 09:25:50;;;;;;;23.05;11.07;;;;;;;-145.67;100.00;66521.78;4993700;28;20525;-70
2022/01/01 09:28:16;;;;;;;26.50;13.52;;;;;;;-145.67;100.00;66521.78;4994320;28;20033;-70
2022/01/01 09:30:44;;;;;;;28.50;13.85;;;;;;;-145.67;100.00;66521.78;4999745;28;20072;-70
2022/01/01 09:33:12;;;;;;;20.75;12.93;;;;;;;-145.67;100.00;66521.78;4994130;28;20132;-70
2022/01/01 09:35:37;;;;;;;22.08;11.77;;;;;;;-145.67;100.00;66521.78;4998041;28;20180;-70
2022/01/01 09:38:03;;;;;;;25.20;14.32;;;;;;;-145.67;100.00;66521.78;4997697;28;20034;-70
2022/01/01 09:40:30;;;;;;;22.20;12.93;;;;;;;-145.67;100.00;66521.78;4997846;28;20521;-70
2022/01/01 09:42:57;;;;;;;22.90;12.07;;;;;;;-145.67;100.00;66521.78;4990484;28;20052;-70
2022/01/01 09:45:23;;;;;;;25.77;12.65;;;;;;;-145.67;100.00;66521.78;4986079;28;20740;-70
2022/01/01 09:47:50;;;;;;;23.55;12.68;;;;;;;-145.67;100.00;66521.78;4997274;28;20177;-70
2022/01/01 09:50:15;;;;;;;29.73;12.40;;;;;;;-145.67;100.00;66521.78;5011830;28;20037;-69
2022/01/01 09:52:43;;;;;;;33.00;13.40;;;;;;;-145.67;100.00;66521.78;4997368;28;20403;-70
2022/01/01 09:55:09;;;;;;;28.30;13.70;;;;;;;-145.67;100.00;66521.78;4997479;28;20123;-70
2022/01/01 09:57:38;;;;;;;31.33;15.38;;;;;;;-145.67;100.00;66521.78;5004013;28;20115;-71
2022/01/01 10:00:05;;;;;;;36.58;18.88;;;;;;;-145.67;100.00;66521.78;5011283;28;20069;-70
2022/01/01 10:02:35;;;;;;;28.20;16.33;;;;;;;-145.67;100.00;66521.78;5012189;28;20438;-71
2022/01/01 10:05:04;;;;;;;25.73;15.13;;;;;;;-145.67;100.00;66521.78;4996654;28;20073;-70
2022/01/01 10:07:30;;;;;;;26.90;15.10;;;;;;;-145.67;100.00;66521.78;4997851;28;21036;-70
2022/01/01 10:09:56;;;;;;;25.92;14.63;;;;;;;-145.67;100.00;66521.78;4995464;28;20186;-70
2022/01/01 10:12:37;;;;;;;28.60;15.23;;;;;;;-145.67;100.00;66521.78;5007398;28;20040;-70
2022/01/01 10:15:06;;;;;;;25.52;14.65;;;;;;;-145.67;100.00;66521.78;5011812;28;20394;-70
2022/01/01 10:17:32;;;;;;;28.42;14.85;;;;;;;-145.67;100.00;66521.78;4997472;28;20057;-70
2022/01/01 10:20:01;;;;;;;28.45;16.65;;;;;;;-145.67;100.00;66521.78;4996155;28;20124;-71
2022/01/01 10:22:27;;;;;;;26.48;16.63;;;;;;;-145.67;100.00;66521.78;4995264;28;20116;-71
2022/01/01 10:28:01;;;;;;;24.88;14.65;;;;;;;-145.67;100.00;66521.78;5009837;28;20033;-70
2022/01/01 10:30:40;;;;;;;25.17;15.23;;;;;;;-145.67;100.00;66521.78;5002854;28;20329;-70
2022/01/01 10:33:11;;;;;;;25.60;16.30;;;;;;;-145.67;100.00;66521.78;4997698;28;20492;-71
2022/01/01 10:35:46;;;;;;;26.42;15.32;;;;;;;-145.67;100.00;66521.78;4996387;28;20129;-71
2022/01/01 10:38:28;;;;;;;24.17;15.70;;;;;;;-145.67;100.00;66521.78;5006381;28;20042;-71
2022/01/01 10:41:08;;;;;;;27.30;14.35;;;;;;;-145.67;100.00;66521.78;4996826;28;20048;-71
2022/01/01 10:43:41;;;;;;;26.90;15.07;;;;;;;-145.67;100.00;66521.78;5011002;28;20037;-71
2022/01/01 10:46:10;;;;;;;26.60;16.15;;;;;;;-145.67;100.00;66521.78;4989522;28;20155;-71
2022/01/01 10:51:02;;;;;;;30.20;18.45;;;;;;;-145.67;100.00;66521.78;4996469;28;20382;-71
2022/01/01 10:53:28;;;;;;;29.40;17.77;;;;;;;-145.67;100.00;66521.78;4996154;28;20272;-70
2022/01/01 10:56:05;;;;;;;37.25;20.85;;;;;;;-145.67;100.00;66521.78;4996013;28;20073;-70
2022/01/01 10:58:34;;;;;;;29.65;19.30;;;;;;;-145.67;100.00;66521.78;5010858;28;20440;-70
2022/01/01 11:01:09;;;;;;;33.20;18.90;;;;;;;-145.67;100.00;66521.78;4986249;28;20041;-70
2022/01/01 11:03:41;;;;;;;32.85;20.52;;;;;;;-145.67;100.00;66521.78;4993657;28;20066;-70